Time;durP1;ratioP1;P1;durP2;ratioP2;P2;SDS_P1;SDS_P2;PMS_P1;PMS_P2;Temp;Humidity;BMP_temperature;BMP_pressure;BME280_temperature;BME280_humidity;BME280_pressure;Samples;Min_cycle;Max_cycle;Signal;HPM_P1;HPM_P2
2022/09/08 00:01:58;;;;;;;;;;;18.90;99.90;;;;;;5045811;28;20359;-60
2022/09/08 00:04:24;;;;;;;;;;;18.80;99.90;;;;;;5046480;28;19963;-60
2022/09/08 00:06:50;;;;;;;;;;;18.80;99.90;;;;;;5045070;28;19909;-60
2022/09/08 00:09:16;;;;;;;;;;;18.90;99.90;;;;;;5047076;28;19912;-59
2022/09/08 00:11:42;;;;;;;;;;;19.20;99.90;;;;;;5028207;28;19908;-59
2022/09/08 00:14:08;;;;;;;;;;;19.20;99.90;;;;;;5045336;28;19912;-59
2022/09/08 00:16:34;;;;;;;;;;;;;;;;;;5045232;28;20007;-59
2022/09/08 00:19:01;;;;;;;;;;;19.20;99.90;;;;;;5045268;28;20000;-59
2022/09/08 00:21:28;;;;;;;;;;;19.30;99.90;;;;;;5028263;28;19904;-59
2022/09/08 00:23:53;;;;;;;;;;;19.30;99.90;;;;;;5044520;28;20717;-59
2022/09/08 00:26:19;;;;;;;;;;;19.30;99.90;;;;;;5045691;28;19954;-59
2022/09/08 00:28:45;;;;;;;;;;;19.30;99.90;;;;;;5044820;28;19942;-59
2022/09/08 00:31:11;;;;;;;;;;;19.00;99.90;;;;;;5046498;28;20038;-59
2022/09/08 00:33:37;;;;;;;;;;;;;;;;;;5045770;28;20023;-59
2022/09/08 00:36:03;;;;;;;;;;;19.20;99.90;;;;;;5044678;28;19927;-59
2022/09/08 00:38:30;;;;;;;;;;;19.40;99.90;;;;;;5045342;28;19954;-59
2022/09/08 00:40:56;;;;;;;;;;;19.30;99.90;;;;;;5045190;28;19919;-60
2022/09/08 00:43:22;;;;;;;;;;;;;;;;;;5045904;28;19917;-60
2022/09/08 00:45:48;;;;;;;;;;;18.90;99.90;;;;;;5044988;28;19920;-59
2022/09/08 00:48:15;;;;;;;;;;;;;;;;;;5045926;28;19983;-60
2022/09/08 00:50:40;;;;;;;;;;;19.10;99.90;;;;;;5044066;28;19908;-59
2022/09/08 00:53:10;;;;;;;;;;;19.30;99.90;;;;;;5046692;28;19927;-59
2022/09/08 00:55:36;;;;;;;;;;;19.30;99.90;;;;;;5046927;28;20272;-59
2022/09/08 00:58:02;;;;;;;;;;;;;;;;;;5047093;28;20395;-59
2022/09/08 01:00:28;;;;;;;;;;;19.90;99.90;;;;;;5045808;28;19912;-60
2022/09/08 01:02:53;;;;;;;;;;;19.00;99.90;;;;;;5046143;28;19919;-59
2022/09/08 01:05:24;;;;;;;;;;;19.00;99.90;;;;;;5046718;28;19905;-59
2022/09/08 01:13:36;;;;;;;;;;;;;;;;;;5046795;28;20303;-59
2022/09/08 01:16:02;;;;;;;;;;;;;;;;;;5046815;28;19931;-59
2022/09/08 01:18:27;;;;;;;;;;;18.40;99.90;;;;;;5046481;28;19908;-59
2022/09/08 01:20:59;;;;;;;;;;;18.60;99.90;;;;;;5048062;28;19913;-60
2022/09/08 01:23:37;;;;;;;;;;;18.70;99.90;;;;;;5050519;28;19999;-59
2022/09/08 01:26:08;;;;;;;;;;;18.60;99.90;;;;;;5050928;28;19920;-59
2022/09/08 01:28:43;;;;;;;;;;;18.70;99.90;;;;;;5049799;28;19905;-59
2022/09/08 01:31:09;;;;;;;;;;;18.70;99.90;;;;;;5049928;28;19908;-60
2022/09/08 01:33:35;;;;;;;;;;;;;;;;;;5049672;28;19915;-59
2022/09/08 01:36:01;;;;;;;;;;;;;;;;;;5050230;28;20370;-59
2022/09/08 01:38:27;;;;;;;;;;;18.80;99.90;;;;;;5047767;28;19944;-59
2022/09/08 01:40:59;;;;;;;;;;;;;;;;;;5050123;28;19980;-59
2022/09/08 01:43:25;;;;;;;;;;;;;;;;;;5048689;28;19919;-59
2022/09/08 01:45:51;;;;;;;;;;;;;;;;;;5048628;28;19913;-59
2022/09/08 01:48:17;;;;;;;;;;;18.90;99.90;;;;;;5032448;28;19911;-59
2022/09/08 01:50:43;;;;;;;;;;;19.00;99.90;;;;;;5048740;28;19916;-59
2022/09/08 01:53:08;;;;;;;;;;;19.10;99.90;;;;;;5049846;28;19913;-59
2022/09/08 01:55:34;;;;;;;;;;;19.20;99.90;;;;;;5049707;28;19912;-59
2022/09/08 01:58:00;;;;;;;;;;;19.20;99.90;;;;;;5049778;28;19905;-59
2022/09/08 02:00:26;;;;;;;;;;;;;;;;;;5049131;28;19913;-59
2022/09/08 02:02:52;;;;;;;;;;;;;;;;;;5048307;28;20355;-59
2022/09/08 02:05:18;;;;;;;;;;;;;;;;;;5050441;28;19909;-59
2022/09/08 02:07:44;;;;;;;;;;;;;;;;;;5049373;28;19948;-60
2022/09/08 02:10:10;;;;;;;;;;;;;;;;;;5049692;28;20418;-60
2022/09/08 02:12:36;;;;;;;;;;;18.50;99.90;;;;;;5049247;28;19943;-60
2022/09/08 02:15:01;;;;;;;;;;;18.80;99.90;;;;;;5048493;28;19912;-59
2022/09/08 02:17:27;;;;;;;;;;;;;;;;;;5048715;28;19956;-59
2022/09/08 02:19:53;;;;;;;;;;;;;;;;;;5048278;28;19917;-59
2022/09/08 02:22:19;;;;;;;;;;;18.70;99.90;;;;;;5049924;28;19908;-59
2022/09/08 02:24:44;;;;;;;;;;;18.80;99.90;;;;;;5049096;28;19905;-59
2022/09/08 02:27:11;;;;;;;;;;;18.60;99.90;;;;;;5049229;28;20021;-59
2022/09/08 02:29:36;;;;;;;;;;;18.70;99.90;;;;;;5048830;28;20296;-60
2022/09/08 02:32:03;;;;;;;;;;;18.60;99.90;;;;;;5048406;28;19913;-59
2022/09/08 02:34:28;;;;;;;;;;;18.60;99.90;;;;;;5049374;28;19909;-59
2022/09/08 02:36:54;;;;;;;;;;;18.60;99.90;;;;;;5048868;28;20371;-59
2022/09/08 02:39:20;;;;;;;;;;;18.50;99.90;;;;;;5048492;28;19911;-60
2022/09/08 02:41:46;;;;;;;;;;;18.50;99.90;;;;;;5048185;28;19920;-59
2022/09/08 02:44:12;;;;;;;;;;;18.50;99.90;;;;;;5048005;28;19954;-59
2022/09/08 02:46:38;;;;;;;;;;;18.60;99.90;;;;;;5048380;28;20011;-59
2022/09/08 02:49:04;;;;;;;;;;;18.60;99.90;;;;;;5048930;28;19955;-59
2022/09/08 02:51:30;;;;;;;;;;;18.60;99.90;;;;;;5047949;28;19909;-59
2022/09/08 02:53:56;;;;;;;;;;;18.60;99.90;;;;;;5048499;28;20042;-59
2022/09/08 02:56:22;;;;;;;;;;;18.50;99.90;;;;;;5047716;28;20387;-59
2022/09/08 02:58:48;;;;;;;;;;;18.50;99.90;;;;;;5048868;28;20496;-59
2022/09/08 03:01:13;;;;;;;;;;;18.50;99.90;;;;;;5047556;28;19920;-59
2022/09/08 03:03:39;;;;;;;;;;;18.60;99.90;;;;;;5048372;28;20668;-59
2022/09/08 03:06:05;;;;;;;;;;;18.60;99.90;;;;;;5048092;28;19919;-59
2022/09/08 03:08:31;;;;;;;;;;;18.60;99.90;;;;;;5048557;28;20296;-59
2022/09/08 03:10:56;;;;;;;;;;;18.60;99.90;;;;;;5048359;28;19905;-59
2022/09/08 03:13:24;;;;;;;;;;;18.60;99.90;;;;;;5046727;28;19913;-59
2022/09/08 03:15:50;;;;;;;;;;;18.60;99.90;;;;;;5047322;28;19913;-59
2022/09/08 03:18:15;;;;;;;;;;;18.60;99.90;;;;;;5048564;28;19924;-59
2022/09/08 03:20:42;;;;;;;;;;;18.50;99.90;;;;;;5048093;28;19958;-59
2022/09/08 03:23:07;;;;;;;;;;;18.50;99.90;;;;;;5048073;28;19922;-59
2022/09/08 03:25:36;;;;;;;;;;;18.60;99.90;;;;;;5047266;28;20438;-59
2022/09/08 03:28:01;;;;;;;;;;;18.60;99.90;;;;;;5047915;28;19982;-59
2022/09/08 03:30:27;;;;;;;;;;;18.60;99.90;;;;;;5047178;28;20376;-59
2022/09/08 03:32:53;;;;;;;;;;;18.50;99.90;;;;;;5047652;28;19909;-59
2022/09/08 03:35:18;;;;;;;;;;;18.40;99.90;;;;;;5048579;28;19947;-59
2022/09/08 03:37:44;;;;;;;;;;;18.40;99.90;;;;;;5045544;28;19959;-59
2022/09/08 03:40:11;;;;;;;;;;;18.40;99.90;;;;;;5047309;28;19963;-59
2022/09/08 03:42:38;;;;;;;;;;;18.40;99.90;;;;;;5046066;28;19924;-59
2022/09/08 03:45:06;;;;;;;;;;;18.40;99.90;;;;;;5047445;28;19908;-59
2022/09/08 03:47:31;;;;;;;;;;;18.40;99.90;;;;;;5048444;28;20327;-59
2022/09/08 03:49:57;;;;;;;;;;;18.40;99.90;;;;;;5047273;28;20003;-59
2022/09/08 03:52:23;;;;;;;;;;;18.40;99.90;;;;;;5046947;28;19930;-59
2022/09/08 03:54:50;;;;;;;;;;;18.40;99.90;;;;;;5046217;28;19960;-59
2022/09/08 03:57:18;;;;;;;;;;;;;;;;;;5047550;28;19905;-59
2022/09/08 03:59:44;;;;;;;;;;;;;;;;;;5047118;28;19966;-59
2022/09/08 04:02:10;;;;;;;;;;;;;;;;;;5047482;28;19912;-59
2022/09/08 04:04:36;;;;;;;;;;;;;;;;;;5047180;28;19908;-59
2022/09/08 04:07:02;;;;;;;;;;;;;;;;;;5047286;28;20391;-59
2022/09/08 04:09:28;;;;;;;;;;;;;;;;;;5046819;28;19928;-59
2022/09/08 04:11:54;;;;;;;;;;;;;;;;;;5047026;28;19909;-59
2022/09/08 04:14:20;;;;;;;;;;;;;;;;;;5047002;28;19900;-59
2022/09/08 04:16:46;;;;;;;;;;;;;;;;;;5046870;28;19915;-59
2022/09/08 04:19:12;;;;;;;;;;;;;;;;;;5045007;28;20027;-59
2022/09/08 04:21:38;;;;;;;;;;;;;;;;;;5047006;28;19905;-59
2022/09/08 04:24:04;;;;;;;;;;;;;;;;;;5046801;28;20039;-59
2022/09/08 04:26:30;;;;;;;;;;;;;;;;;;5046777;28;20007;-59
2022/09/08 04:28:56;;;;;;;;;;;;;;;;;;5046481;28;20023;-59
2022/09/08 04:31:22;;;;;;;;;;;;;;;;;;5046959;28;19931;-59
2022/09/08 04:33:48;;;;;;;;;;;;;;;;;;5046556;28;19908;-59
2022/09/08 04:36:14;;;;;;;;;;;;;;;;;;5046735;28;19944;-59
2022/09/08 04:38:40;;;;;;;;;;;;;;;;;;5045773;28;19935;-59
2022/09/08 04:41:06;;;;;;;;;;;;;;;;;;5046752;28;19905;-59
2022/09/08 04:43:32;;;;;;;;;;;;;;;;;;5046425;28;19912;-59
2022/09/08 04:45:58;;;;;;;;;;;;;;;;;;5045614;28;19904;-59
2022/09/08 04:48:24;;;;;;;;;;;;;;;;;;5046107;28;19913;-59
2022/09/08 04:50:49;;;;;;;;;;;;;;;;;;5046598;28;19915;-59
2022/09/08 04:53:16;;;;;;;;;;;;;;;;;;5046157;28;20021;-59
2022/09/08 04:55:42;;;;;;;;;;;;;;;;;;5045494;28;19919;-59
2022/09/08 04:58:08;;;;;;;;;;;;;;;;;;5045653;28;19952;-59
2022/09/08 05:00:34;;;;;;;;;;;;;;;;;;5046418;28;19940;-59
2022/09/08 05:03:00;;;;;;;;;;;;;;;;;;5047170;28;19909;-59
2022/09/08 05:05:26;;;;;;;;;;;;;;;;;;5046433;28;19912;-59
2022/09/08 05:07:52;;;;;;;;;;;;;;;;;;5045495;28;19912;-58
2022/09/08 05:10:18;;;;;;;;;;;;;;;;;;5046020;28;19915;-58
2022/09/08 05:12:44;;;;;;;;;;;;;;;;;;5046230;28;19908;-59
2022/09/08 05:15:10;;;;;;;;;;;;;;;;;;5045412;28;19999;-58
2022/09/08 05:17:36;;;;;;;;;;;;;;;;;;5046145;28;19951;-58
2022/09/08 05:20:02;;;;;;;;;;;;;;;;;;5046269;28;19909;-58
2022/09/08 05:22:28;;;;;;;;;;;;;;;;;;5045454;28;19909;-58
2022/09/08 05:24:54;;;;;;;;;;;;;;;;;;5045857;28;20591;-58
2022/09/08 05:27:20;;;;;;;;;;;;;;;;;;5046479;28;19908;-58
2022/09/08 05:29:46;;;;;;;;;;;;;;;;;;5046064;28;19905;-58
2022/09/08 05:32:12;;;;;;;;;;;;;;;;;;5045074;28;19931;-58
2022/09/08 05:34:38;;;;;;;;;;;;;;;;;;5045151;28;19909;-58
2022/09/08 05:37:04;;;;;;;;;;;;;;;;;;5046942;28;19908;-58
2022/09/08 05:39:30;;;;;;;;;;;;;;;;;;5046533;28;20042;-58
2022/09/08 05:41:56;;;;;;;;;;;;;;;;;;5044986;28;20003;-58
2022/09/08 05:44:22;;;;;;;;;;;;;;;;;;5044658;28;19965;-58
2022/09/08 05:46:48;;;;;;;;;;;;;;;;;;5045338;28;19909;-58
2022/09/08 05:49:14;;;;;;;;;;;;;;;;;;5046008;28;20423;-58
2022/09/08 05:51:40;;;;;;;;;;;;;;;;;;5045900;28;20027;-58
2022/09/08 05:54:06;;;;;;;;;;;;;;;;;;5046197;28;19995;-58
2022/09/08 05:56:32;;;;;;;;;;;;;;;;;;5046023;28;19958;-58
2022/09/08 05:58:58;;;;;;;;;;;;;;;;;;5045152;28;20345;-58
2022/09/08 06:01:24;;;;;;;;;;;;;;;;;;5043218;28;19920;-58
2022/09/08 06:03:50;;;;;;;;;;;;;;;;;;5045393;28;19919;-57
2022/09/08 06:06:17;;;;;;;;;;;;;;;;;;5047118;28;19943;-57
2022/09/08 06:08:43;;;;;;;;;;;;;;;;;;5048534;28;20100;-57
2022/09/08 06:11:08;;;;;;;;;;;;;;;;;;5048401;28;20253;-57
2022/09/08 06:13:34;;;;;;;;;;;;;;;;;;5047088;28;20000;-57
2022/09/08 06:16:00;;;;;;;;;;;;;;;;;;5048674;28;19912;-57
2022/09/08 06:18:26;;;;;;;;;;;;;;;;;;5049063;28;19905;-58
2022/09/08 06:20:52;;;;;;;;;;;;;;;;;;5048923;28;20367;-57
2022/09/08 06:23:18;;;;;;;;;;;;;;;;;;5047714;28;19919;-55
2022/09/08 06:25:44;;;;;;;;;;;;;;;;;;5034684;28;19909;-57
2022/09/08 06:28:10;;;;;;;;;;;;;;;;;;5045924;28;19935;-57
2022/09/08 06:30:37;;;;;;;;;;;;;;;;;;5048787;28;19908;-55
2022/09/08 06:33:03;;;;;;;;;;;;;;;;;;5049001;28;19931;-56
2022/09/08 06:35:28;;;;;;;;;;;;;;;;;;5047242;28;19912;-56
2022/09/08 06:37:54;;;;;;;;;;;;;;;;;;5046043;28;19912;-56
2022/09/08 06:40:20;;;;;;;;;;;;;;;;;;5047246;28;19982;-53
2022/09/08 06:42:47;;;;;;;;;;;;;;;;;;5047582;28;19967;-56
2022/09/08 06:45:13;;;;;;;;;;;;;;;;;;5047715;28;19915;-55
2022/09/08 06:47:39;;;;;;;;;;;;;;;;;;5048602;28;19909;-56
2022/09/08 06:50:05;;;;;;;;;;;;;;;;;;5048518;28;19908;-56
2022/09/08 06:52:32;;;;;;;;;;;;;;;;;;5030721;28;19913;-56
2022/09/08 06:54:58;;;;;;;;;;;;;;;;;;5046370;28;19932;-55
2022/09/08 06:57:24;;;;;;;;;;;;;;;;;;5048181;28;20372;-56
2022/09/08 06:59:50;;;;;;;;;;;;;;;;;;5047006;28;19970;-55
2022/09/08 07:02:16;;;;;;;;;;;;;;;;;;5047447;28;19948;-55
2022/09/08 07:04:42;;;;;;;;;;;;;;;;;;5047897;28;19908;-55
2022/09/08 07:07:08;;;;;;;;;;;;;;;;;;5046940;28;19911;-55
2022/09/08 07:09:35;;;;;;;;;;;;;;;;;;5046535;28;19908;-56
2022/09/08 07:12:00;;;;;;;;;;;;;;;;;;5046935;28;19920;-55
2022/09/08 07:14:27;;;;;;;;;;;;;;;;;;5044642;28;19913;-52
2022/09/08 07:16:53;;;;;;;;;;;;;;;;;;5043945;28;20276;-55
2022/09/08 07:19:19;;;;;;;;;;;;;;;;;;5047615;28;19911;-54
2022/09/08 07:21:45;;;;;;;;;;;;;;;;;;5046548;28;19912;-56
2022/09/08 07:24:10;;;;;;;;;;;;;;;;;;5047959;28;20335;-57
2022/09/08 07:26:40;;;;;;;;;;;;;;;;;;5047576;28;19916;-55
2022/09/08 07:29:06;;;;;;;;;;;;;;;;;;5047682;28;19913;-56
2022/09/08 07:31:32;;;;;;;;;;;;;;;;;;5048596;28;19927;-55
2022/09/08 07:33:58;;;;;;;;;;;;;;;;;;5047551;28;19905;-55
2022/09/08 07:36:25;;;;;;;;;;;;;;;;;;5046803;28;20070;-55
2022/09/08 07:38:51;;;;;;;;;;;;;;;;;;5045825;28;19951;-53
2022/09/08 07:41:17;;;;;;;;;;;;;;;;;;5047349;28;20356;-54
2022/09/08 07:43:43;;;;;;;;;;;;;;;;;;5046872;28;19916;-54
2022/09/08 07:46:09;;;;;;;;;;;;;;;;;;5047302;28;19904;-54
2022/09/08 07:48:35;;;;;;;;;;;;;;;;;;5046111;28;19943;-54
2022/09/08 07:51:04;;;;;;;;;;;;;;;;;;5046230;28;20224;-56
2022/09/08 07:53:30;;;;;;;;;;;;;;;;;;5047714;28;19948;-53
2022/09/08 07:55:57;;;;;;;;;;;;;;;;;;5045778;28;19928;-54
2022/09/08 07:58:25;;;;;;;;;;;;;;;;;;5046092;28;19996;-54
2022/09/08 08:00:51;;;;;;;;;;;;;;;;;;5045426;28;19974;-54
2022/09/08 08:03:16;;;;;;;;;;;;;;;;;;5045826;28;19951;-55
2022/09/08 08:05:42;;;;;;;;;;;;;;;;;;5047113;28;19924;-53
2022/09/08 08:08:08;;;;;;;;;;;;;;;;;;5045372;28;20011;-52
2022/09/08 08:10:34;;;;;;;;;;;;;;;;;;5046885;28;19913;-54
2022/09/08 08:13:00;;;;;;;;;;;;;;;;;;5047566;28;19975;-54
2022/09/08 08:15:26;;;;;;;;;;;;;;;;;;5046053;28;19966;-53
2022/09/08 08:17:52;;;;;;;;;;;;;;;;;;5046884;28;20467;-52
2022/09/08 08:20:18;;;;;;;;;;;;;;;;;;5047184;28;20264;-54
2022/09/08 08:22:44;;;;;;;;;;;;;;;;;;5045755;28;19932;-52
2022/09/08 08:25:10;;;;;;;;;;;;;;;;;;5044027;28;19932;-50
2022/09/08 08:27:36;;;;;;;;;;;;;;;;;;5044517;28;20259;-51
2022/09/08 08:30:02;;;;;;;;;;;;;;;;;;5042591;28;20000;-53
2022/09/08 08:32:28;;;;;;;;;;;;;;;;;;5046466;28;19909;-51
2022/09/08 08:34:55;;;;;;;;;;;;;;;;;;5046178;28;20023;-52
2022/09/08 08:37:21;;;;;;;;;;;;;;;;;;5044485;28;19916;-52
2022/09/08 08:39:47;;;;;;;;;;;;;;;;;;5046314;28;19913;-52
2022/09/08 08:42:13;;;;;;;;;;;;;;;;;;5046305;28;19975;-53
2022/09/08 08:44:39;;;;;;;;;;;;;;;;;;5046539;28;19913;-53
2022/09/08 08:47:05;;;;;;;;;;;;;;;;;;5046400;28;19931;-54
2022/09/08 08:49:31;;;;;;;;;;;;;;;;;;5047419;28;20406;-52
2022/09/08 08:51:57;;;;;;;;;;;;;;;;;;5046352;28;19919;-50
2022/09/08 08:54:23;;;;;;;;;;;;;;;;;;5045123;28;19921;-52
2022/09/08 08:56:49;;;;;;;;;;;;;;;;;;5045594;28;20003;-53
2022/09/08 08:59:15;;;;;;;;;;;;;;;;;;5046528;28;19917;-54
2022/09/08 09:01:41;;;;;;;;;;;;;;;;;;5044412;28;20364;-51
2022/09/08 09:04:07;;;;;;;;;;;;;;;;;;5046537;28;19938;-51
2022/09/08 09:06:33;;;;;;;;;;;;;;;;;;5046842;28;19939;-51
2022/09/08 09:08:59;;;;;;;;;;;;;;;;;;5047151;28;19909;-52
2022/09/08 09:11:25;;;;;;;;;;;;;;;;;;5044811;28;20304;-52
2022/09/08 09:13:51;;;;;;;;;;;;;;;;;;5046191;28;19956;-52
2022/09/08 09:16:17;;;;;;;;;;;;;;;;;;5046019;28;20062;-51
2022/09/08 09:18:43;;;;;;;;;;;;;;;;;;5036884;28;19917;-52
2022/09/08 09:21:09;;;;;;;;;;;;;;;;;;5043191;28;19909;-52
2022/09/08 09:23:35;;;;;;;;;;;;;;;;;;5045935;28;19940;-53
2022/09/08 09:26:01;;;;;;;;;;;;;;;;;;5046636;28;19915;-53
2022/09/08 09:28:27;;;;;;;;;;;;;;;;;;5046461;28;19913;-51
2022/09/08 09:30:53;;;;;;;;;;;;;;;;;;5045970;28;20291;-54
2022/09/08 09:33:19;;;;;;;;;;;;;;;;;;5046245;28;19952;-54
2022/09/08 09:35:45;;;;;;;;;;;;;;;;;;5045888;28;19974;-53
2022/09/08 09:38:13;;;;;;;;;;;;;;;;;;5046240;28;19967;-51
2022/09/08 09:40:39;;;;;;;;;;;;;;;;;;5046578;28;19909;-50
2022/09/08 09:43:04;;;;;;;;;;;;;;;;;;5049873;28;19924;-52
2022/09/08 09:45:30;;;;;;;;;;;;;;;;;;5050453;28;19912;-52
2022/09/08 09:47:56;;;;;;;;;;;;;;;;;;5048463;28;20303;-51
2022/09/08 09:50:22;;;;;;;;;;;;;;;;;;5040603;28;19917;-54
2022/09/08 09:52:48;;;;;;;;;;;;;;;;;;5038554;28;19913;-51
2022/09/08 09:55:14;;;;;;;;;;;;;;;;;;5041646;28;19920;-49
2022/09/08 09:57:40;;;;;;;;;;;;;;;;;;5040123;28;19943;-53
2022/09/08 10:00:06;;;;;;;;;;;;;;;;;;5040921;28;19921;-53
2022/09/08 10:02:32;;;;;;;;;;;;;;;;;;5046467;28;19916;-51
2022/09/08 10:04:58;;;;;;;;;;;;;;;;;;5047562;28;20022;-52
2022/09/08 10:07:24;;;;;;;;;;;;;;;;;;5046036;28;19913;-51
2022/09/08 10:09:50;;;;;;;;;;;;;;;;;;5047039;28;20037;-52
2022/09/08 10:12:16;;;;;;;;;;;;;;;;;;5049437;28;19916;-53
2022/09/08 10:14:42;;;;;;;;;;;;;;;;;;5049047;28;19908;-53
2022/09/08 10:17:08;;;;;;;;;;;;;;;;;;5049280;28;19920;-51
2022/09/08 10:19:34;;;;;;;;;;;;;;;;;;5048308;28;19944;-53
2022/09/08 10:22:00;;;;;;;;;;;;;;;;;;5048438;28;20273;-51
2022/09/08 10:24:26;;;;;;;;;;;;;;;;;;5048946;28;19908;-53
2022/09/08 10:26:52;;;;;;;;;;;;;;;;;;5048756;28;19954;-53
2022/09/08 10:29:18;;;;;;;;;;;;;;;;;;5048368;28;19994;-52
2022/09/08 10:31:44;;;;;;;;;;;;;;;;;;5048128;28;19921;-49
2022/09/08 10:34:10;;;;;;;;;;;;;;;;;;5048657;28;19909;-51
2022/09/08 10:36:36;;;;;;;;;;;;;;;;;;5046712;28;19928;-53
2022/09/08 10:39:02;;;;;;;;;;;;;;;;;;5047869;28;19920;-53
2022/09/08 10:41:28;;;;;;;;;;;;;;;;;;5046539;28;19916;-53
2022/09/08 10:43:54;;;;;;;;;;;;;;;;;;5043296;28;20016;-53
2022/09/08 10:46:20;;;;;;;;;;;;;;;;;;5037664;28;19913;-50
2022/09/08 10:48:45;;;;;;;;;;;;;;;;;;5044797;28;19921;-53
2022/09/08 10:51:11;;;;;;;;;;;;;;;;;;5047635;28;19919;-53
2022/09/08 10:53:37;;;;;;;;;;;;;;;;;;5044689;28;20003;-52
2022/09/08 10:56:03;;;;;;;;;;;;;;;;;;5049172;28;19943;-52
2022/09/08 10:58:29;;;;;;;;;;;;;;;;;;5048293;28;19920;-51
2022/09/08 11:00:55;;;;;;;;;;;;;;;;;;5047336;28;19952;-52
2022/09/08 11:03:21;;;;;;;;;;;;;;;;;;5047517;28;20442;-51
2022/09/08 11:05:47;;;;;;;;;;;;;;;;;;5048272;28;19917;-51
2022/09/08 11:08:13;;;;;;;;;;;;;;;;;;5047530;28;19961;-51
2022/09/08 11:10:39;;;;;;;;;;;;;;;;;;5032690;28;19944;-50
2022/09/08 11:13:05;;;;;;;;;;;;;;;;;;5038839;28;20784;-50
2022/09/08 11:15:31;;;;;;;;;;;;;;;;;;5048739;28;19939;-49
2022/09/08 11:17:57;;;;;;;;;;;;;;;;;;5041869;28;19913;-51
2022/09/08 11:20:24;;;;;;;;;;;;;;;;;;5048032;28;19916;-52
2022/09/08 11:22:50;;;;;;;;;;;;;;;;;;5046164;28;19913;-52
2022/09/08 11:25:16;;;;;;;;;;;;;;;;;;5044059;28;19962;-50
2022/09/08 11:27:42;;;;;;;;;;;;;;;;;;5047543;28;19924;-51
2022/09/08 11:30:10;;;;;;;;;;;;;;;;;;5047235;28;19917;-46
2022/09/08 11:32:36;;;;;;;;;;;;;;;;;;5046461;28;19921;-50
2022/09/08 11:35:02;;;;;;;;;;;;;;;;;;5044861;28;19913;-49
2022/09/08 11:37:28;;;;;;;;;;;;;;;;;;5046517;28;19943;-51
2022/09/08 11:39:54;;;;;;;;;;;;;;;;;;5042836;28;19917;-49
2022/09/08 11:42:20;;;;;;;;;;;;;;;;;;5044532;28;20004;-49
2022/09/08 11:44:46;;;;;;;;;;;;;;;;;;5047089;28;19977;-51
2022/09/08 11:47:12;;;;;;;;;;;;;;;;;;5048337;28;19916;-50
2022/09/08 11:49:38;;;;;;;;;;;;;;;;;;5046588;28;19917;-48
2022/09/08 11:52:04;;;;;;;;;;;;;;;;;;5046556;28;19927;-51
2022/09/08 11:54:31;;;;;;;;;;;;;;;;;;5043683;28;19920;-50
2022/09/08 11:56:57;;;;;;;;;;;;;;;;;;5045498;28;19950;-50
2022/09/08 11:59:23;;;;;;;;;;;;;;;;;;5045800;28;19920;-51
2022/09/08 12:01:49;;;;;;;;;;;;;;;;;;5046609;28;19912;-49
2022/09/08 12:04:15;;;;;;;;;;;;;;;;;;5045994;28;19919;-47
2022/09/08 12:06:41;;;;;;;;;;;;;;;;;;5047659;28;19913;-48
2022/09/08 12:09:07;;;;;;;;;;;;;;;;;;5045366;28;19913;-52
2022/09/08 12:11:33;;;;;;;;;;;;;;;;;;5042332;28;19927;-51
2022/09/08 12:13:59;;;;;;;;;;;;;;;;;;5040271;28;19983;-51
2022/09/08 12:16:25;;;;;;;;;;;;;;;;;;5044974;28;19916;-49
2022/09/08 12:18:51;;;;;;;;;;;;;;;;;;5044150;28;19912;-49
2022/09/08 12:21:17;;;;;;;;;;;;;;;;;;5046591;28;19913;-51
2022/09/08 12:23:43;;;;;;;;;;;;;;;;;;5044808;28;19964;-49
2022/09/08 12:26:11;;;;;;;;;;;;;;;;;;5047346;28;19913;-48
2022/09/08 12:28:37;;;;;;;;;;;;;;;;;;5045647;28;19913;-49
2022/09/08 12:31:03;;;;;;;;;;;;;;;;;;5044862;28;19920;-48
2022/09/08 12:33:29;;;;;;;;;;;;;;;;;;5044039;28;19951;-48
2022/09/08 12:35:56;;;;;;;;;;;;;;;;;;5047280;28;19945;-47
2022/09/08 12:38:22;;;;;;;;;;;;;;;;;;5046549;28;20504;-51
2022/09/08 12:40:48;;;;;;;;;;;;;;;;;;5045143;28;19917;-48
2022/09/08 12:43:14;;;;;;;;;;;;;;;;;;5045704;28;20426;-47
2022/09/08 12:45:40;;;;;;;;;;;;;;;;;;5033616;28;19954;-50
2022/09/08 12:48:06;;;;;;;;;;;;;;;;;;5044446;28;19999;-48
2022/09/08 12:50:32;;;;;;;;;;;;;;;;;;5044415;28;19995;-47
2022/09/08 12:52:58;;;;;;;;;;;;;;;;;;5045856;28;19912;-47
2022/09/08 12:55:24;;;;;;;;;;;;;;;;;;5043650;28;19917;-49
2022/09/08 12:57:54;;;;;;;;;;;;;;;;;;5041141;28;19913;-49
2022/09/08 13:00:22;;;;;;;;;;;;;;;;;;5041143;28;19917;-48
2022/09/08 13:02:48;;;;;;;;;;;;;;;;;;5045947;28;19908;-47
2022/09/08 13:05:15;;;;;;;;;;;;;;;;;;5046216;28;19920;-48
2022/09/08 13:07:41;;;;;;;;;;;;;;;;;;5045591;28;19913;-49
2022/09/08 13:10:07;;;;;;;;;;;;;;;;;;5033435;28;20315;-50
2022/09/08 13:12:33;;;;;;;;;;;;;;;;;;5038095;28;19960;-49
2022/09/08 13:14:59;;;;;;;;;;;;;;;;;;5043608;28;19979;-50
2022/09/08 13:17:25;;;;;;;;;;;;;;;;;;5049762;28;19947;-47
2022/09/08 13:19:51;;;;;;;;;;;;;;;;;;5049484;28;19913;-48
2022/09/08 13:22:17;;;;;;;;;;;;;;;;;;5050689;28;19991;-48
2022/09/08 13:24:43;;;;;;;;;;;;;;;;;;5049062;28;19983;-47
2022/09/08 13:27:09;;;;;;;;;;;;;;;;;;5050489;28;19917;-47
2022/09/08 13:29:35;;;;;;;;;;;;;;;;;;5049883;28;19913;-48
2022/09/08 13:32:01;;;;;;;;;;;;;;;;;;5047432;28;20356;-47
2022/09/08 13:34:27;;;;;;;;;;;;;;;;;;5047520;28;19943;-49
2022/09/08 13:36:53;;;;;;;;;;;;;;;;;;5049281;28;19924;-48
2022/09/08 13:39:18;;;;;;;;;;;;;;;;;;5050143;28;19913;-47
2022/09/08 13:41:44;;;;;;;;;;;;;;;;;;5050560;28;19954;-49
2022/09/08 13:44:10;;;;;;;;;;;;;;;;;;5048963;28;19923;-48
2022/09/08 13:46:36;;;;;;;;;;;;;;;;;;5049538;28;19917;-49
2022/09/08 13:49:02;;;;;;;;;;;;;;;;;;5044257;28;19956;-46
2022/09/08 13:51:28;;;;;;;;;;;;;;;;;;5042606;28;19912;-50
2022/09/08 13:53:54;;;;;;;;;;;;;;;;;;5042105;28;19917;-50
2022/09/08 13:56:20;;;;;;;;;;;;;;;;;;5050068;28;19917;-51
2022/09/08 13:58:46;;;;;;;;;;;;;;;;;;5046749;28;19952;-52
2022/09/08 14:01:12;;;;;;;;;;;;;;;;;;5049669;28;20007;-50
2022/09/08 14:03:38;;;;;;;;;;;;;;;;;;5049368;28;19916;-51
2022/09/08 14:06:04;;;;;;;;;;;;;;;;;;5048709;28;20296;-52
2022/09/08 14:08:30;;;;;;;;;;;;;;;;;;5048469;28;19920;-52
2022/09/08 14:10:56;;;;;;;;;;;;;;;;;;5048411;28;19967;-52
2022/09/08 14:13:22;;;;;;;;;;;;;;;;;;5050171;28;19932;-51
2022/09/08 14:15:48;;;;;;;;;;;;;;;;;;5047848;28;19916;-48
2022/09/08 14:18:13;;;;;;;;;;;;;;;;;;5047791;28;19912;-49
2022/09/08 14:20:40;;;;;;;;;;;;;;;;;;5046893;28;19994;-48
2022/09/08 14:23:06;;;;;;;;;;;;;;;;;;5057210;28;20311;-49
2022/09/08 14:25:32;;;;;;;;;;;;;;;;;;5048136;28;19917;-51
2022/09/08 14:27:58;;;;;;;;;;;;;;;;;;5047324;28;19960;-48
2022/09/08 14:30:24;;;;;;;;;;;;;;;;;;5048520;28;19986;-49
2022/09/08 14:32:50;;;;;;;;;;;;;;;;;;5047735;28;19917;-52
2022/09/08 14:35:16;;;;;;;;;;;;;;;;;;5048636;28;20004;-53
2022/09/08 14:37:42;;;;;;;;;;;;;;;;;;5048656;28;19978;-54
2022/09/08 14:40:08;;;;;;;;;;;;;;;;;;5049133;28;20311;-51
2022/09/08 14:42:34;;;;;;;;;;;;;;;;;;5047524;28;19970;-52
2022/09/08 14:45:00;;;;;;;;;;;;;;;;;;5043639;28;19921;-52
2022/09/08 14:47:26;;;;;;;;;;;;;;;;;;5048606;28;19913;-50
2022/09/08 14:49:52;;;;;;;;;;;;;;;;;;5043969;28;19917;-53
2022/09/08 14:52:20;;;;;;;;;;;;;;;;;;5043856;28;20383;-52
2022/09/08 14:54:46;;;;;;;;;;;;;;;;;;5046350;28;20333;-52
2022/09/08 14:57:12;;;;;;;;;;;;;;;;;;5039988;28;19920;-51
2022/09/08 14:59:38;;;;;;;;;;;;;;;;;;5034902;28;19992;-52
2022/09/08 15:02:04;;;;;;;;;;;;;;;;;;5028497;28;19980;-52
2022/09/08 15:04:30;;;;;;;;;;;;;;;;;;5036197;28;19916;-47
2022/09/08 15:06:56;;;;;;;;;;;;;;;;;;5048263;28;20000;-48
2022/09/08 15:09:22;;;;;;;;;;;;;;;;;;5047105;28;20039;-48
2022/09/08 15:11:48;;;;;;;;;;;;;;;;;;5048611;28;19913;-49
2022/09/08 15:14:14;;;;;;;;;;;;;;;;;;5048294;28;19908;-51
2022/09/08 15:16:41;;;;;;;;;;;;;;;;;;5046626;28;20003;-52
2022/09/08 15:19:07;;;;;;;;;;;;;;;;;;5044332;28;19956;-53
2022/09/08 15:21:33;;;;;;;;;;;;;;;;;;5047315;28;19972;-52
2022/09/08 15:24:00;;;;;;;;;;;;;;;;;;5044583;28;19939;-49
2022/09/08 15:26:26;;;;;;;;;;;;;;;;;;5045156;28;19916;-51
2022/09/08 15:28:53;;;;;;;;;;;;;;;;;;5045829;28;19912;-49
2022/09/08 15:31:19;;;;;;;;;;;;;;;;;;5047302;28;19909;-50
2022/09/08 15:33:45;;;;;;;;;;;;;;;;;;5046828;28;20249;-51
2022/09/08 15:36:12;;;;;;;;;;;;;;;;;;5045318;28;19936;-51
2022/09/08 15:38:38;;;;;;;;;;;;;;;;;;5045336;28;19909;-49
2022/09/08 15:41:05;;;;;;;;;;;;;;;;;;5046242;28;19908;-50
2022/09/08 15:43:32;;;;;;;;;;;;;;;;;;5046146;28;19974;-53
2022/09/08 15:45:59;;;;;;;;;;;;;;;;;;5046043;28;20384;-50
2022/09/08 15:48:25;;;;;;;;;;;;;;;;;;5044630;28;19935;-49
2022/09/08 15:50:51;;;;;;;;;;;;;;;;;;5046488;28;20414;-52
2022/09/08 15:53:19;;;;;;;;;;;;;;;;;;5046064;28;20334;-51
2022/09/08 15:55:45;;;;;;;;;;;;;;;;;;5045563;28;19923;-49
2022/09/08 15:58:11;;;;;;;;;;;;;;;;;;5045907;28;19919;-51
2022/09/08 16:00:37;;;;;;;;;;;;;;;;;;5045632;28;19917;-51
2022/09/08 16:03:03;;;;;;;;;;;;;;;;;;5045817;28;19913;-49
2022/09/08 16:05:33;;;;;;;;;;;;;;;;;;5045864;28;19966;-51
2022/09/08 16:07:59;;;;;;;;;;;;;;;;;;5045563;28;19909;-49
2022/09/08 16:10:25;;;;;;;;;;;;;;;;;;5045663;28;19909;-49
2022/09/08 16:12:51;;;;;;;;;;;;;;;;;;5046152;28;19912;-50